TimeEST,TemperatureF,Dew PointF,Humidity,Sea Level PressureIn,VisibilityMPH,Wind Direction,Wind SpeedMPH,Gust SpeedMPH,PrecipitationIn,Events,Conditions,WindDirDegrees,DateUTC
12:56 AM,30.0,19.0,64,30.16,10.0,Calm,Calm,-,N/A,,Overcast,0,2012-11-06 05:56:00
1:56 AM,30.0,18.0,61,30.16,10.0,Calm,Calm,-,N/A,,Overcast,0,2012-11-06 06:56:00
2:56 AM,30.0,19.0,64,30.15,10.0,Calm,Calm,-,N/A,,Overcast,0,2012-11-06 07:56:00
3:56 AM,28.9,19.0,67,30.14,10.0,Calm,Calm,-,N/A,,Overcast,0,2012-11-06 08:56:00
4:56 AM,28.9,19.0,67,30.14,10.0,Calm,Calm,-,N/A,,Overcast,0,2012-11-06 09:56:00
5:56 AM,28.9,18.0,64,30.14,10.0,Variable,3.5,-,N/A,,Overcast,0,2012-11-06 10:56:00
6:56 AM,28.0,18.0,66,30.14,10.0,SE,4.6,-,N/A,,Overcast,130,2012-11-06 11:56:00
7:14 AM,28.4,17.6,64,30.08,10.0,East,4.6,-,N/A,,Scattered Clouds,100,2012-11-06 12:14:00
7:32 AM,28.4,19.4,69,30.09,10.0,ESE,4.6,-,N/A,,Mostly Cloudy,110,2012-11-06 12:32:00
7:56 AM,30.0,19.0,64,30.15,10.0,ESE,5.8,-,N/A,,Mostly Cloudy,110,2012-11-06 12:56:00
8:13 AM,30.2,19.4,64,30.09,10.0,ESE,8.1,-,N/A,,Scattered Clouds,120,2012-11-06 13:13:00
8:56 AM,30.9,19.0,61,30.14,10.0,ESE,9.2,-,N/A,,Clear,110,2012-11-06 13:56:00
10:56 AM,35.1,19.9,54,30.12,10.0,SSE,10.4,-,N/A,,Clear,160,2012-11-06 15:56:00
11:56 AM,37.0,21.0,52,30.10,10.0,East,11.5,17.3,N/A,,Clear,100,2012-11-06 16:56:00
12:56 PM,39.0,21.0,49,30.07,10.0,Variable,6.9,17.3,N/A,,Clear,0,2012-11-06 17:56:00
1:56 PM,41.0,21.0,45,30.05,10.0,Variable,6.9,-,N/A,,Clear,0,2012-11-06 18:56:00
2:56 PM,41.0,21.0,45,30.04,10.0,East,8.1,-,N/A,,Clear,100,2012-11-06 19:56:00
3:56 PM,39.9,21.0,47,30.04,10.0,East,6.9,-,N/A,,Clear,100,2012-11-06 20:56:00
5:56 PM,34.0,21.0,59,30.05,10.0,ESE,6.9,-,N/A,,Clear,120,2012-11-06 22:56:00
6:56 PM,32.0,21.0,64,30.05,10.0,ESE,6.9,-,N/A,,Clear,110,2012-11-06 23:56:00
7:56 PM,30.9,21.0,67,30.05,10.0,ESE,8.1,-,N/A,,Clear,110,2012-11-07 00:56:00
8:56 PM,28.9,19.9,69,30.03,10.0,ENE,4.6,-,N/A,,Clear,70,2012-11-07 01:56:00
9:56 PM,28.0,19.9,72,30.02,10.0,East,5.8,-,N/A,,Clear,90,2012-11-07 02:56:00
10:56 PM,27.0,19.0,72,30.02,10.0,East,5.8,-,N/A,,Clear,100,2012-11-07 03:56:00
11:56 PM,27.0,19.0,72,30.02,10.0,ESE,6.9,-,N/A,,Clear,110,2012-11-07 04:56:00